Time;durP1;ratioP1;P1;durP2;ratioP2;P2;SDS_P1;SDS_P2;PMS_P1;PMS_P2;Temp;Humidity;BMP_temperature;BMP_pressure;BME280_temperature;BME280_humidity;BME280_pressure;Samples;Min_cycle;Max_cycle;Signal;HPM_P1;HPM_P2
2021/09/10 00:00:52;;;;;;;12.93;8.90;;;;;;;18.94;51.77;92825.81;2058504;69;20161;-76
2021/09/10 00:03:18;;;;;;;11.75;8.50;;;;;;;18.94;51.09;92822.97;2058553;69;20189;-76
2021/09/10 00:05:44;;;;;;;12.77;8.55;;;;;;;18.57;52.95;92820.31;2058498;69;20236;-77
2021/09/10 00:08:14;;;;;;;10.10;8.23;;;;;;;19.04;50.67;92819.72;2058324;69;20221;-76
2021/09/10 00:10:39;;;;;;;12.77;8.40;;;;;;;18.89;51.54;92817.81;2058529;69;20158;-78
2021/09/10 00:13:05;;;;;;;10.57;8.45;;;;;;;18.87;51.24;92818.44;2058513;69;20174;-77
2021/09/10 00:15:31;;;;;;;12.48;8.50;;;;;;;18.94;51.74;92817.25;2058458;69;20216;-76
2021/09/10 00:17:56;;;;;;;9.27;8.10;;;;;;;18.83;51.73;92818.34;2058270;69;20689;-77
2021/09/10 00:20:22;;;;;;;10.75;8.43;;;;;;;18.76;51.52;92822.38;2058121;69;20150;-77
2021/09/10 00:22:48;;;;;;;14.75;8.73;;;;;;;18.74;51.74;92817.34;2058367;69;20200;-77
2021/09/10 00:25:14;;;;;;;10.05;7.78;;;;;;;18.78;52.10;92822.44;2058522;69;20591;-77
2021/09/10 00:27:40;;;;;;;11.95;8.43;;;;;;;18.64;52.61;92816.97;2058358;69;20137;-77
2021/09/10 00:30:07;;;;;;;12.50;8.32;;;;;;;18.59;52.66;92806.09;2058465;69;20158;-78
2021/09/10 00:32:32;;;;;;;12.45;8.30;;;;;;;18.61;51.81;92809.78;2058543;69;20141;-77
2021/09/10 00:34:58;;;;;;;10.52;8.30;;;;;;;18.82;50.67;92819.00;2057942;69;20158;-78
2021/09/10 00:37:24;;;;;;;13.27;8.38;;;;;;;18.60;52.47;92816.13;2058366;69;20649;-76
2021/09/10 00:39:51;;;;;;;10.98;8.60;;;;;;;18.67;51.21;92817.78;2057731;69;20166;-77
2021/09/10 00:42:19;;;;;;;12.80;9.00;;;;;;;18.60;52.17;92825.41;2058599;69;20192;-77
2021/09/10 00:44:45;;;;;;;11.82;8.57;;;;;;;18.54;52.57;92822.34;2058500;69;20146;-77
2021/09/10 00:47:11;;;;;;;10.52;8.35;;;;;;;18.45;52.97;92829.91;2058245;69;20145;-78
2021/09/10 00:49:37;;;;;;;10.02;8.77;;;;;;;18.59;51.79;92823.22;2058429;69;20152;-77
2021/09/10 00:52:03;;;;;;;10.80;8.15;;;;;;;18.23;52.61;92826.28;2052044;69;20158;-77
2021/09/10 00:54:29;;;;;;;11.23;8.10;;;;;;;18.33;53.33;92820.94;2058391;69;20141;-77
2021/09/10 00:56:54;;;;;;;9.32;7.90;;;;;;;18.50;50.81;92831.50;2058393;69;20146;-77
2021/09/10 00:59:20;;;;;;;8.98;7.60;;;;;;;18.56;51.05;92819.59;2056341;69;20180;-77
2021/09/10 01:01:47;;;;;;;11.07;8.57;;;;;;;18.59;51.08;92821.09;2058220;69;20642;-77
2021/09/10 01:04:14;;;;;;;12.35;8.75;;;;;;;18.34;51.91;92824.53;2058346;69;20148;-77
2021/09/10 01:06:42;;;;;;;9.82;8.15;;;;;;;18.58;50.65;92827.47;2056448;69;20146;-77
2021/09/10 01:09:08;;;;;;;10.82;8.55;;;;;;;18.39;53.15;92828.97;2054901;69;20142;-77
2021/09/10 01:11:34;;;;;;;9.45;8.10;;;;;;;18.59;50.52;92826.06;2055038;69;20141;-77
2021/09/10 01:14:00;;;;;;;10.90;8.80;;;;;;;18.39;52.10;92826.84;2057565;69;20142;-77
2021/09/10 01:16:26;;;;;;;10.85;9.10;;;;;;;18.34;53.66;92822.41;2057948;69;20268;-78
2021/09/10 01:18:51;;;;;;;12.82;8.65;;;;;;;18.42;51.90;92819.84;2055194;69;20161;-78
2021/09/10 01:21:21;;;;;;;13.18;8.70;;;;;;;18.41;52.49;92829.03;2055019;69;20149;-76
2021/09/10 01:23:48;;;;;;;12.65;8.32;;;;;;;18.36;51.30;92828.16;2054386;69;20200;-78
2021/09/10 01:26:14;;;;;;;9.88;8.68;;;;;;;18.40;51.30;92833.28;2057640;69;20138;-76
2021/09/10 01:28:40;;;;;;;14.18;8.35;;;;;;;18.41;51.97;92834.72;2055952;69;20185;-77
2021/09/10 01:31:06;;;;;;;10.82;8.10;;;;;;;18.39;52.48;92826.84;2056847;69;20205;-77
2021/09/10 01:33:31;;;;;;;8.80;7.82;;;;;;;18.40;51.85;92836.13;2057936;69;20181;-77
2021/09/10 01:35:57;;;;;;;9.60;8.55;;;;;;;18.35;51.48;92834.53;2055559;69;20503;-79
2021/09/10 01:38:24;;;;;;;11.85;8.95;;;;;;;18.43;51.64;92835.53;2055992;69;20169;-77
2021/09/10 01:40:50;;;;;;;9.30;7.88;;;;;;;18.64;49.45;92825.53;2057861;69;20161;-77
2021/09/10 01:43:16;;;;;;;9.70;7.93;;;;;;;18.64;50.46;92841.91;2054969;69;20145;-77
2021/09/10 01:45:41;;;;;;;10.07;8.27;;;;;;;18.42;51.85;92828.38;2054571;69;20164;-76
2021/09/10 01:48:07;;;;;;;9.68;7.97;;;;;;;18.45;50.93;92824.19;2053622;70;20228;-76
2021/09/10 01:50:33;;;;;;;10.60;7.82;;;;;;;18.76;49.88;92828.09;2054443;69;20178;-77
2021/09/10 01:52:59;;;;;;;10.95;8.35;;;;;;;18.39;51.50;92826.13;2054813;69;20134;-76
2021/09/10 01:55:25;;;;;;;9.32;8.35;;;;;;;18.20;52.42;92828.34;2054828;69;20138;-77
2021/09/10 01:57:51;;;;;;;11.70;8.32;;;;;;;18.17;52.47;92832.50;2054840;69;20165;-76
2021/09/10 02:00:19;;;;;;;10.38;8.02;;;;;;;18.28;51.87;92831.47;2054935;69;20583;-76
2021/09/10 02:02:44;;;;;;;11.70;8.32;;;;;;;18.21;53.33;92829.81;2055002;69;20145;-76
2021/09/10 02:05:11;;;;;;;17.45;8.40;;;;;;;18.16;53.88;92828.22;2055871;69;20153;-76
2021/09/10 02:07:37;;;;;;;12.30;8.00;;;;;;;18.09;52.45;92825.78;2056067;69;20138;-77
2021/09/10 02:10:08;;;;;;;9.73;8.10;;;;;;;18.15;52.10;92823.19;2055880;69;20587;-76
2021/09/10 02:12:34;;;;;;;13.18;8.80;;;;;;;18.12;53.79;92830.19;2055889;69;20138;-77
2021/09/10 02:14:59;;;;;;;11.05;8.27;;;;;;;18.16;52.75;92827.47;2055952;69;20161;-76
2021/09/10 02:17:25;;;;;;;10.77;8.45;;;;;;;18.39;50.25;92829.69;2055447;70;20166;-77
2021/09/10 02:19:51;;;;;;;11.20;8.23;;;;;;;18.20;51.81;92831.19;2055908;69;20542;-76
2021/09/10 02:22:17;;;;;;;10.75;8.30;;;;;;;18.04;52.64;92828.50;2055643;69;20220;-76
2021/09/10 02:24:42;;;;;;;11.02;7.70;;;;;;;18.03;52.97;92823.47;2055953;69;20229;-77
2021/09/10 02:27:08;;;;;;;12.23;8.38;;;;;;;18.13;51.97;92834.50;2055913;69;20496;-78
2021/09/10 02:29:34;;;;;;;9.73;7.85;;;;;;;18.16;51.81;92824.63;2055978;69;20135;-78
2021/09/10 02:31:59;;;;;;;13.00;8.32;;;;;;;18.02;53.66;92831.28;2055993;69;20577;-77
2021/09/10 02:34:25;;;;;;;11.40;8.18;;;;;;;18.11;51.91;92834.44;2056153;69;20192;-78
2021/09/10 02:36:50;;;;;;;13.10;8.38;;;;;;;18.10;52.02;92832.94;2055855;69;20161;-77
2021/09/10 02:39:16;;;;;;;10.98;7.90;;;;;;;17.97;52.58;92829.69;2055963;69;20257;-78
2021/09/10 02:41:42;;;;;;;9.73;8.05;;;;;;;17.95;53.48;92831.72;2056005;69;20238;-78
2021/09/10 02:44:08;;;;;;;11.90;8.50;;;;;;;18.22;51.51;92833.38;2055907;69;20142;-78
2021/09/10 02:46:34;;;;;;;10.27;7.95;;;;;;;17.95;50.60;92835.28;2055956;69;20142;-77
2021/09/10 02:49:00;;;;;;;12.65;8.18;;;;;;;18.03;49.94;92832.00;2055930;69;20238;-78
2021/09/10 02:51:26;;;;;;;10.13;8.02;;;;;;;17.89;50.80;92837.22;2055808;69;20229;-77
2021/09/10 02:53:52;;;;;;;10.40;8.27;;;;;;;18.12;49.82;92836.59;2055944;69;20144;-78
2021/09/10 02:56:18;;;;;;;10.77;8.23;;;;;;;17.97;50.14;92831.81;2056041;69;20142;-79
2021/09/10 02:58:44;;;;;;;12.55;8.40;;;;;;;17.84;50.35;92835.59;2055932;69;20534;-77
2021/09/10 03:01:10;;;;;;;11.40;8.55;;;;;;;17.97;49.78;92834.66;2055849;69;20146;-77
2021/09/10 03:03:36;;;;;;;12.43;8.27;;;;;;;18.02;49.82;92836.25;2055923;69;20185;-78
2021/09/10 03:06:02;;;;;;;13.85;8.05;;;;;;;18.05;49.67;92823.53;2055882;69;20146;-78
2021/09/10 03:08:28;;;;;;;10.05;8.10;;;;;;;18.04;49.58;92825.66;2055789;69;20161;-77
2021/09/10 03:10:53;;;;;;;11.82;8.20;;;;;;;17.91;50.18;92828.72;2055961;69;20141;-77
2021/09/10 03:13:19;;;;;;;9.52;7.68;;;;;;;17.73;51.66;92825.91;2055348;69;20145;-77
2021/09/10 03:15:45;;;;;;;16.40;8.75;;;;;;;17.52;53.30;92827.31;2055332;69;20242;-76
2021/09/10 03:18:11;;;;;;;10.18;8.07;;;;;;;17.84;50.72;92830.63;2054874;70;20174;-78
2021/09/10 03:20:37;;;;;;;10.70;8.48;;;;;;;17.66;51.72;92832.78;2054797;70;20157;-78
2021/09/10 03:23:03;;;;;;;9.57;8.10;;;;;;;17.69;51.79;92822.94;2055167;69;20149;-78
2021/09/10 03:25:29;;;;;;;10.38;8.65;;;;;;;17.57;52.67;92825.34;2054761;69;20153;-78
2021/09/10 03:27:54;;;;;;;12.73;8.23;;;;;;;17.61;51.20;92825.50;2055403;69;20495;-78
2021/09/10 03:30:21;;;;;;;13.43;8.50;;;;;;;17.62;51.79;92824.09;2055305;69;20177;-77
2021/09/10 03:32:47;;;;;;;11.23;7.43;;;;;;;17.71;50.57;92829.44;2055233;69;20138;-77
2021/09/10 03:35:12;;;;;;;9.55;7.63;;;;;;;17.54;51.16;92830.94;2055292;69;20149;-77
2021/09/10 03:37:38;;;;;;;9.25;7.88;;;;;;;17.47;51.52;92829.28;2055149;69;20150;-77
2021/09/10 03:40:05;;;;;;;10.65;7.93;;;;;;;17.41;52.89;92834.00;2055362;69;20138;-78
2021/09/10 03:42:30;;;;;;;11.05;8.40;;;;;;;17.13;53.69;92827.97;2055237;69;20173;-78
2021/09/10 03:44:56;;;;;;;11.32;8.10;;;;;;;17.26;52.82;92832.72;2055382;69;20513;-77
2021/09/10 03:47:21;;;;;;;10.85;8.40;;;;;;;17.19;53.63;92828.94;2055269;69;20161;-77
2021/09/10 03:49:47;;;;;;;14.98;9.07;;;;;;;17.03;53.57;92834.72;2054722;70;20521;-78
2021/09/10 03:52:13;;;;;;;10.88;8.55;;;;;;;17.10;53.28;92837.81;2055151;69;20263;-77
2021/09/10 03:54:38;;;;;;;9.93;7.78;;;;;;;17.08;53.58;92835.59;2055249;69;20146;-78
2021/09/10 03:57:04;;;;;;;12.27;8.30;;;;;;;17.17;52.51;92830.97;2055194;69;20150;-78
2021/09/10 03:59:30;;;;;;;12.52;7.88;;;;;;;17.13;51.70;92836.50;2054961;70;20654;-77
2021/09/10 04:01:56;;;;;;;10.68;8.68;;;;;;;17.20;52.06;92838.19;2055172;69;20251;-78
2021/09/10 04:04:21;;;;;;;10.13;7.80;;;;;;;16.93;54.14;92831.47;2055339;69;20146;-78
2021/09/10 04:06:48;;;;;;;17.45;7.70;;;;;;;16.97;53.15;92825.22;2055100;69;20282;-78
2021/09/10 04:09:14;;;;;;;11.13;8.38;;;;;;;16.98;53.13;92824.56;2055187;69;20245;-77
2021/09/10 04:11:40;;;;;;;10.55;7.85;;;;;;;17.01;53.40;92837.50;2055280;69;20510;-78
2021/09/10 04:14:06;;;;;;;15.98;8.10;;;;;;;16.93;54.34;92827.91;2051916;70;20130;-78
2021/09/10 04:16:33;;;;;;;10.55;8.30;;;;;;;16.72;53.78;92840.56;2055196;69;20200;-78
2021/09/10 04:19:00;;;;;;;10.35;8.52;;;;;;;16.87;53.84;92839.03;2055179;69;20208;-77
2021/09/10 04:21:26;;;;;;;9.50;7.70;;;;;;;17.05;51.45;92830.50;2055166;69;20149;-78
2021/09/10 04:23:52;;;;;;;10.60;8.32;;;;;;;16.94;53.13;92832.94;2054679;69;20138;-78
2021/09/10 04:26:17;;;;;;;13.55;8.18;;;;;;;16.71;54.36;92842.66;2055105;69;20158;-78
2021/09/10 04:28:46;;;;;;;10.30;8.52;;;;;;;16.74;53.92;92838.56;2055139;69;20149;-77
2021/09/10 04:31:16;;;;;;;14.63;9.05;;;;;;;16.40;55.17;92840.69;2055116;69;20204;-78
2021/09/10 04:33:43;;;;;;;13.07;8.88;;;;;;;16.24;55.45;92840.00;2055250;69;20148;-77
2021/09/10 04:36:10;;;;;;;11.93;8.75;;;;;;;16.45;55.27;92848.00;2055181;69;20240;-78
2021/09/10 04:38:35;;;;;;;11.77;8.15;;;;;;;16.32;55.83;92840.34;2055047;69;20173;-77
2021/09/10 04:41:01;;;;;;;10.88;8.60;;;;;;;16.41;55.00;92842.16;2057331;69;20229;-77
2021/09/10 04:43:27;;;;;;;12.95;8.35;;;;;;;16.56;53.80;92843.47;2055268;69;20488;-77
2021/09/10 04:45:52;;;;;;;13.10;8.90;;;;;;;16.44;54.67;92842.97;2055012;69;20510;-77
2021/09/10 04:48:18;;;;;;;14.05;9.57;;;;;;;16.35;55.34;92856.09;2055201;69;20302;-77
2021/09/10 04:50:43;;;;;;;11.40;8.57;;;;;;;16.14;56.09;92856.63;2055071;69;20146;-78
2021/09/10 04:53:09;;;;;;;11.00;9.15;;;;;;;16.30;55.08;92848.78;2055023;69;20149;-77
2021/09/10 04:55:35;;;;;;;11.77;9.18;;;;;;;16.23;55.29;92850.66;2055129;69;20153;-78
2021/09/10 04:58:00;;;;;;;10.75;8.45;;;;;;;16.35;54.27;92852.53;2054729;69;20617;-77
2021/09/10 05:00:26;;;;;;;10.77;8.75;;;;;;;16.26;54.92;92857.13;2055108;69;20577;-77
2021/09/10 05:02:51;;;;;;;15.30;8.63;;;;;;;16.28;55.12;92854.38;2055072;69;20157;-77
2021/09/10 05:05:17;;;;;;;10.98;8.13;;;;;;;16.35;53.82;92855.38;2055133;69;20204;-77
2021/09/10 05:07:43;;;;;;;11.20;8.20;;;;;;;16.24;53.80;92857.06;2054968;69;20142;-77
2021/09/10 05:10:09;;;;;;;12.95;8.32;;;;;;;16.48;52.34;92843.13;2054551;69;20613;-78
2021/09/10 05:12:35;;;;;;;9.93;7.95;;;;;;;16.36;53.74;92854.00;2055222;69;20208;-77
2021/09/10 05:15:02;;;;;;;10.30;8.20;;;;;;;16.33;54.58;92850.34;2055085;69;20190;-77
2021/09/10 05:17:27;;;;;;;10.20;8.40;;;;;;;16.30;53.91;92850.91;2055203;69;20149;-77
2021/09/10 05:19:53;;;;;;;9.95;8.73;;;;;;;16.48;53.18;92854.50;2055225;69;20158;-77
2021/09/10 05:22:18;;;;;;;11.68;8.43;;;;;;;16.61;51.62;92856.47;2055016;69;20157;-77
2021/09/10 05:24:44;;;;;;;10.60;8.43;;;;;;;16.43;52.90;92861.38;2055024;69;20138;-78
2021/09/10 05:27:10;;;;;;;15.65;9.30;;;;;;;16.23;54.83;92858.44;2055123;69;20150;-78
2021/09/10 05:29:36;;;;;;;9.82;8.27;;;;;;;16.18;54.47;92857.53;2054499;70;20216;-78
2021/09/10 05:32:01;;;;;;;9.93;8.10;;;;;;;16.49;53.36;92870.91;2055010;69;20502;-78
2021/09/10 05:34:27;;;;;;;12.00;8.95;;;;;;;16.07;54.85;92866.25;2055037;69;20221;-78
2021/09/10 05:36:53;;;;;;;12.90;9.10;;;;;;;16.17;54.68;92870.28;2054379;70;20152;-78
2021/09/10 05:39:18;;;;;;;11.55;8.85;;;;;;;16.00;55.52;92865.28;2054383;70;20205;-78
2021/09/10 05:41:44;;;;;;;11.77;8.07;;;;;;;16.22;54.06;92866.22;2054966;69;20593;-77
2021/09/10 05:44:09;;;;;;;13.52;8.32;;;;;;;16.21;54.21;92873.28;2055036;69;20598;-78
2021/09/10 05:46:35;;;;;;;10.20;8.38;;;;;;;16.27;52.42;92862.19;2055074;69;20546;-77
2021/09/10 05:49:02;;;;;;;10.63;8.20;;;;;;;16.50;51.30;92863.13;2055010;69;20228;-77
2021/09/10 05:51:28;;;;;;;8.93;7.65;;;;;;;16.42;52.40;92877.72;2054877;69;20180;-76
2021/09/10 05:53:53;;;;;;;13.27;8.43;;;;;;;16.39;53.05;92866.91;2054466;69;20232;-75
2021/09/10 05:56:19;;;;;;;11.38;8.38;;;;;;;16.33;52.88;92869.50;2054996;69;20154;-76
2021/09/10 05:58:44;;;;;;;10.60;8.43;;;;;;;16.19;53.41;92873.19;2055074;70;20574;-76
2021/09/10 06:01:10;;;;;;;10.85;8.27;;;;;;;16.37;53.83;92872.50;2054942;69;20138;-76
2021/09/10 06:03:36;;;;;;;15.45;8.98;;;;;;;16.45;52.04;92864.34;2054641;69;20607;-76
2021/09/10 06:06:01;;;;;;;13.43;7.93;;;;;;;16.55;52.02;92864.75;2055030;69;20153;-76
2021/09/10 06:08:27;;;;;;;9.73;7.75;;;;;;;16.41;53.87;92867.72;2054852;69;20154;-76
2021/09/10 06:10:52;;;;;;;10.40;8.27;;;;;;;16.27;53.98;92870.72;2055037;69;20248;-77
2021/09/10 06:13:18;;;;;;;15.20;8.25;;;;;;;16.33;53.66;92864.53;2054907;69;20138;-78
2021/09/10 06:15:43;;;;;;;11.27;7.95;;;;;;;16.19;53.61;92878.88;2054920;69;20142;-79
2021/09/10 06:18:09;;;;;;;18.38;8.60;;;;;;;16.01;53.50;92875.25;2054885;69;20154;-76
2021/09/10 06:20:35;;;;;;;13.23;8.48;;;;;;;16.26;52.07;92874.94;2054910;69;20184;-78
2021/09/10 06:23:01;;;;;;;12.55;8.60;;;;;;;16.21;53.41;92876.09;2054852;69;20170;-79
2021/09/10 06:25:27;;;;;;;9.73;7.57;;;;;;;16.36;52.35;92885.25;2054906;69;20146;-79
2021/09/10 06:27:53;;;;;;;14.07;8.52;;;;;;;16.07;54.95;92878.34;2054882;69;20142;-78
2021/09/10 06:30:19;;;;;;;18.92;8.75;;;;;;;16.04;53.77;92885.31;2054463;70;20150;-77
2021/09/10 06:32:44;;;;;;;10.25;7.97;;;;;;;16.19;52.75;92884.56;2054757;69;20149;-77
2021/09/10 06:35:11;;;;;;;9.45;7.70;;;;;;;16.23;53.10;92884.72;2054872;69;20149;-77
2021/09/10 06:37:37;;;;;;;11.73;8.75;;;;;;;16.11;55.23;92883.47;2054709;69;20126;-77
2021/09/10 06:40:04;;;;;;;13.55;9.35;;;;;;;15.93;55.23;92883.41;2054828;69;20138;-79
2021/09/10 06:42:29;;;;;;;15.88;8.93;;;;;;;16.18;53.47;92880.25;2054778;69;20169;-77
2021/09/10 06:44:55;;;;;;;12.43;8.45;;;;;;;16.15;55.96;92878.69;2054840;69;20590;-77
2021/09/10 06:47:21;;;;;;;10.75;8.27;;;;;;;15.97;54.84;92878.63;2054805;69;20537;-77
2021/09/10 06:49:49;;;;;;;12.27;7.85;;;;;;;16.29;54.30;92872.16;2054348;70;20686;-77
2021/09/10 06:52:15;;;;;;;12.23;9.07;;;;;;;16.63;54.94;92873.63;2055196;69;20236;-77
2021/09/10 06:54:41;;;;;;;11.45;8.85;;;;;;;16.95;53.81;92873.47;2054853;70;20583;-77
2021/09/10 06:57:07;;;;;;;11.85;8.98;;;;;;;16.86;53.98;92868.84;2055289;69;20630;-77
2021/09/10 06:59:32;;;;;;;14.55;8.50;;;;;;;17.25;52.55;92869.00;2055311;69;20156;-78
2021/09/10 07:01:58;;;;;;;13.13;9.32;;;;;;;17.77;53.11;92869.53;2054790;69;20255;-78
2021/09/10 07:04:24;;;;;;;12.57;9.00;;;;;;;18.02;52.08;92876.88;2055332;69;20528;-77
2021/09/10 07:06:49;;;;;;;12.35;8.77;;;;;;;18.36;51.51;92868.06;2055197;69;20158;-78
2021/09/10 07:09:16;;;;;;;14.25;9.40;;;;;;;18.41;50.77;92863.97;2055273;69;20152;-78
2021/09/10 07:11:41;;;;;;;12.98;8.98;;;;;;;18.84;50.40;92865.44;2054752;70;20164;-78
2021/09/10 07:14:07;;;;;;;15.05;8.70;;;;;;;19.12;49.92;92871.31;2055431;69;20157;-76
2021/09/10 07:16:33;;;;;;;10.25;8.18;;;;;;;19.90;48.37;92865.13;2055281;69;20170;-79
2021/09/10 07:18:59;;;;;;;12.48;8.05;;;;;;;19.50;48.19;92874.63;2055403;69;20219;-76
2021/09/10 07:21:25;;;;;;;13.15;8.18;;;;;;;19.17;47.23;92869.31;2055182;69;20597;-78
2021/09/10 07:23:51;;;;;;;12.05;7.88;;;;;;;19.34;48.09;92871.31;2055225;69;20620;-78
2021/09/10 07:26:17;;;;;;;10.52;7.70;;;;;;;21.55;43.42;92870.13;2055360;69;20154;-76
2021/09/10 07:28:43;;;;;;;12.85;7.90;;;;;;;22.39;41.27;92866.16;2055216;69;20149;-78
2021/09/10 07:31:09;;;;;;;11.30;7.88;;;;;;;19.76;45.63;92859.72;2055211;69;20146;-76
2021/09/10 07:33:37;;;;;;;15.25;8.00;;;;;;;20.60;45.00;92859.19;2055272;69;20157;-76
2021/09/10 07:36:06;;;;;;;11.63;7.53;;;;;;;20.98;45.47;92857.31;2055264;69;20153;-76
2021/09/10 07:38:32;;;;;;;11.48;7.90;;;;;;;21.39;44.63;92855.44;2055095;69;20190;-77
2021/09/10 07:40:58;;;;;;;13.82;6.93;;;;;;;22.62;42.57;92861.59;2055349;69;20530;-78
2021/09/10 07:43:24;;;;;;;10.93;6.85;;;;;;;23.86;39.65;92862.91;2055317;69;20134;-77
2021/09/10 07:45:49;;;;;;;10.32;7.22;;;;;;;23.04;42.25;92864.50;2055131;69;20142;-77
2021/09/10 07:48:15;;;;;;;12.20;7.10;;;;;;;22.69;41.76;92862.44;2055356;69;20173;-77
2021/09/10 07:50:40;;;;;;;10.38;7.68;;;;;;;21.92;44.25;92864.47;2055181;69;20158;-77
2021/09/10 07:53:06;;;;;;;11.15;7.22;;;;;;;22.73;43.69;92860.38;2055166;69;20586;-76
2021/09/10 07:55:32;;;;;;;10.60;7.53;;;;;;;22.54;43.19;92861.44;2055315;69;20229;-78
2021/09/10 07:57:58;;;;;;;11.25;7.38;;;;;;;23.43;42.79;92855.81;2055342;69;20242;-76
2021/09/10 08:00:23;;;;;;;9.63;7.63;;;;;;;25.47;37.42;92863.97;2055169;69;20613;-75
2021/09/10 08:02:50;;;;;;;13.57;7.85;;;;;;;22.71;40.82;92860.31;2055162;69;20146;-76
2021/09/10 08:05:16;;;;;;;11.13;7.47;;;;;;;24.27;40.99;92854.81;2055192;69;20228;-78
2021/09/10 08:07:43;;;;;;;8.27;7.38;;;;;;;23.80;41.67;92857.81;2055074;69;20158;-77
2021/09/10 08:10:16;;;;;;;10.23;7.30;;;;;;;24.63;40.76;92860.28;2055302;69;20530;-79
2021/09/10 08:12:45;;;;;;;11.20;7.00;;;;;;;24.15;40.54;92866.19;2055207;69;20227;-77
2021/09/10 08:15:13;;;;;;;10.65;7.45;;;;;;;23.70;40.93;92856.97;2055391;69;20169;-78
2021/09/10 08:17:39;;;;;;;9.93;7.28;;;;;;;23.17;40.88;92856.81;2055299;69;20161;-78
2021/09/10 08:20:06;;;;;;;8.63;7.15;;;;;;;23.76;40.72;92872.13;2055279;69;20142;-77
2021/09/10 08:22:34;;;;;;;8.00;6.80;;;;;;;24.42;39.23;92861.50;2054958;69;20172;-78
2021/09/10 08:25:00;;;;;;;8.98;7.00;;;;;;;24.79;39.37;92865.53;2055119;69;20583;-80
2021/09/10 08:27:26;;;;;;;10.75;6.90;;;;;;;25.15;39.28;92864.44;2055156;69;20150;-79
2021/09/10 08:29:53;;;;;;;7.18;6.32;;;;;;;24.99;38.69;92871.47;2055153;69;20137;-78
2021/09/10 08:32:19;;;;;;;8.20;6.68;;;;;;;26.89;36.68;92875.56;2055115;69;20138;-79
2021/09/10 08:34:44;;;;;;;8.05;6.07;;;;;;;27.61;34.98;92864.84;2055127;69;20172;-78
2021/09/10 08:37:10;;;;;;;8.43;6.60;;;;;;;26.60;36.03;92860.34;2055114;69;20220;-77
2021/09/10 08:39:35;;;;;;;10.43;6.47;;;;;;;26.24;36.70;92858.72;2055120;69;20138;-78
2021/09/10 08:42:01;;;;;;;10.05;6.78;;;;;;;25.12;35.43;92860.09;2055192;69;20550;-78
2021/09/10 08:44:28;;;;;;;8.38;6.63;;;;;;;25.53;35.53;92859.00;2055078;69;20173;-77
2021/09/10 08:46:54;;;;;;;7.57;6.88;;;;;;;25.30;36.53;92863.13;2055028;69;20513;-78
2021/09/10 08:49:19;;;;;;;6.85;6.15;;;;;;;26.84;35.75;92856.78;2055120;69;20598;-77
2021/09/10 08:51:45;;;;;;;10.57;6.80;;;;;;;26.40;35.75;92857.34;2054982;69;20582;-79
2021/09/10 08:54:11;;;;;;;7.32;6.20;;;;;;;27.08;35.60;92859.03;2055115;69;20134;-78
2021/09/10 08:56:36;;;;;;;9.68;6.47;;;;;;;26.99;33.28;92854.69;2055164;69;20293;-79
2021/09/10 08:59:10;;;;;;;7.65;6.40;;;;;;;26.26;34.90;92841.44;2055162;69;20180;-78
2021/09/10 09:01:48;;;;;;;8.20;6.32;;;;;;;26.73;35.57;92840.88;2054526;70;20605;-78
2021/09/10 09:04:14;;;;;;;6.85;6.18;;;;;;;27.94;34.88;92845.31;2055088;69;20614;-78
2021/09/10 09:06:40;;;;;;;7.57;6.30;;;;;;;28.73;32.48;92838.56;2054910;69;20144;-76
2021/09/10 09:09:05;;;;;;;9.93;7.05;;;;;;;29.06;32.30;92839.09;2054980;69;20153;-76
2021/09/10 09:11:31;;;;;;;8.68;6.18;;;;;;;29.38;32.59;92837.44;2055035;69;20166;-79
2021/09/10 09:14:02;;;;;;;7.53;6.30;;;;;;;28.87;32.56;92831.97;2054344;70;20157;-78
2021/09/10 09:16:32;;;;;;;9.23;6.55;;;;;;;28.71;31.57;92837.81;2055141;69;20146;-77
2021/09/10 09:19:02;;;;;;;7.65;6.47;;;;;;;29.40;32.57;92836.69;2055003;69;20585;-79
2021/09/10 09:21:32;;;;;;;10.43;6.25;;;;;;;30.71;30.04;92839.78;2054996;69;20140;-78
2021/09/10 09:24:18;;;;;;;9.13;6.53;;;;;;;27.90;33.11;92839.53;2055171;69;20244;-79
2021/09/10 09:26:54;;;;;;;10.05;6.20;;;;;;;28.62;33.44;92828.47;2055037;69;20168;-77
2021/09/10 09:29:22;;;;;;;10.23;6.57;;;;;;;28.14;32.21;92821.41;2055030;69;20598;-76
2021/09/10 09:31:55;;;;;;;9.55;6.20;;;;;;;29.38;32.87;92814.97;2055035;69;20216;-76
2021/09/10 09:34:44;;;;;;;7.07;6.40;;;;;;;29.48;32.47;92810.53;2054455;69;20238;-77
2021/09/10 09:37:09;;;;;;;8.65;6.32;;;;;;;30.35;32.29;92815.50;2054885;69;20142;-77
2021/09/10 09:39:55;;;;;;;11.65;6.60;;;;;;;29.52;30.55;92805.41;2055113;69;20138;-77
2021/09/10 09:42:34;;;;;;;6.68;5.60;;;;;;;30.01;29.97;92807.16;2055052;69;20220;-77
2021/09/10 09:45:10;;;;;;;6.60;6.00;;;;;;;28.51;31.81;92803.91;2054546;70;20183;-74
2021/09/10 09:47:36;;;;;;;6.85;6.15;;;;;;;29.23;30.43;92807.09;2052703;69;20232;-76
2021/09/10 09:50:07;;;;;;;8.25;5.95;;;;;;;28.39;30.92;92804.69;2056537;69;20185;-77
2021/09/10 09:52:33;;;;;;;7.15;6.22;;;;;;;27.82;32.57;92796.16;2056716;69;20162;-77
2021/09/10 09:54:59;;;;;;;7.70;7.00;;;;;;;29.29;31.50;92793.28;2056919;69;20269;-77
2021/09/10 09:57:26;;;;;;;7.50;6.18;;;;;;;29.65;29.44;92797.38;2054143;69;20265;-76
2021/09/10 09:59:52;;;;;;;9.93;6.53;;;;;;;28.71;29.57;92800.19;2057266;69;20165;-76
2021/09/10 10:02:18;;;;;;;7.63;6.10;;;;;;;30.36;29.22;92802.41;2057251;69;20606;-77
2021/09/10 10:04:44;;;;;;;13.30;6.07;;;;;;;29.79;29.71;92793.59;2057321;69;20686;-78
2021/09/10 10:07:10;;;;;;;6.63;5.57;;;;;;;30.41;28.38;92799.47;2057072;69;20146;-78
2021/09/10 10:09:41;;;;;;;7.57;6.13;;;;;;;30.31;29.20;92798.13;2056780;69;20153;-77
2021/09/10 10:12:09;;;;;;;8.48;6.25;;;;;;;31.10;29.54;92796.38;2057348;69;20640;-78
2021/09/10 10:14:39;;;;;;;6.70;6.10;;;;;;;31.48;28.70;92791.47;2057326;69;20141;-79
2021/09/10 10:17:06;;;;;;;6.90;6.20;;;;;;;30.41;28.31;92779.84;2057065;69;20148;-78
2021/09/10 10:19:37;;;;;;;9.55;7.10;;;;;;;29.75;29.80;92774.06;2057577;69;20201;-79
2021/09/10 10:22:05;;;;;;;7.00;6.30;;;;;;;30.67;28.79;92769.38;2057246;69;20160;-77
2021/09/10 10:24:41;;;;;;;8.05;5.90;;;;;;;32.27;27.63;92771.16;2057453;69;20875;-78
2021/09/10 10:27:34;;;;;;;7.10;6.10;;;;;;;31.93;26.77;92763.78;2057671;69;20149;-78
2021/09/10 10:30:02;;;;;;;8.75;6.00;;;;;;;32.29;27.35;92760.16;2057957;69;20142;-78
2021/09/10 10:32:29;;;;;;;7.40;6.10;;;;;;;32.38;26.58;92752.00;2058115;69;20162;-77
2021/09/10 10:35:13;;;;;;;6.90;5.85;;;;;;;33.00;26.85;92746.31;2058197;69;20251;-77
2021/09/10 10:37:45;;;;;;;6.60;5.90;;;;;;;32.23;27.80;92742.09;2057632;69;20157;-78
2021/09/10 10:40:33;;;;;;;7.10;6.20;;;;;;;33.45;26.04;92742.34;2057950;69;20247;-77
2021/09/10 10:43:04;;;;;;;7.18;6.07;;;;;;;33.95;25.03;92739.63;2057839;69;20257;-79
2021/09/10 10:45:42;;;;;;;6.73;5.60;;;;;;;34.76;24.44;92747.59;2057537;69;20284;-79
2021/09/10 10:48:33;;;;;;;8.80;5.50;;;;;;;34.40;24.71;92738.38;2057549;69;20236;-76
2021/09/10 10:51:03;;;;;;;8.10;5.10;;;;;;;35.44;23.34;92738.19;2057259;69;20134;-81
2021/09/10 10:53:52;;;;;;;5.53;5.03;;;;;;;34.81;23.23;92737.91;2057067;69;20248;-77
2021/09/10 10:56:24;;;;;;;7.45;4.88;;;;;;;36.66;21.53;92733.25;2056987;69;20134;-79
2021/09/10 10:59:08;;;;;;;;;;;;;;;36.89;21.63;92736.06;2057832;69;20593;-80
2021/09/10 11:02:12;;;;;;;9.43;5.05;;;;;;;38.18;20.62;92733.81;2057671;69;20209;-77
2021/09/10 11:04:47;;;;;;;9.73;5.03;;;;;;;39.92;18.53;92738.28;2054163;69;20141;-80
2021/09/10 11:07:13;;;;;;;5.07;4.57;;;;;;;40.54;17.66;92731.41;2057037;69;20186;-75
2021/09/10 11:09:38;;;;;;;8.38;4.75;;;;;;;40.58;18.24;92730.50;2057682;69;20202;-78
2021/09/10 11:12:04;;;;;;;4.72;4.30;;;;;;;39.74;18.42;92722.25;2057869;69;20241;-78
2021/09/10 11:14:41;;;;;;;6.53;4.60;;;;;;;42.33;16.96;92728.84;2058281;69;20568;-78
2021/09/10 11:17:14;;;;;;;9.73;4.35;;;;;;;42.58;16.61;92731.75;2058254;69;20150;-77
2021/09/10 11:19:48;;;;;;;4.60;4.13;;;;;;;42.52;16.91;92719.56;2058270;69;20216;-76
2021/09/10 11:22:15;;;;;;;6.65;4.22;;;;;;;41.77;17.30;92719.50;2058178;69;20562;-78
2021/09/10 11:24:42;;;;;;;5.18;4.22;;;;;;;41.59;16.56;92714.66;2058312;69;20149;-76
2021/09/10 11:27:28;;;;;;;5.43;4.55;;;;;;;41.07;17.91;92702.03;2057634;69;20219;-77
2021/09/10 11:29:54;;;;;;;6.25;3.95;;;;;;;42.26;17.17;92713.00;2058172;69;20177;-78